createdAt,value
2024-01-01T00:00:12.142Z,92.43
2024-01-01T00:01:12.104Z,92.53
2024-01-01T00:02:12.227Z,92.63
2024-01-01T00:03:12.169Z,92.63
2024-01-01T00:04:12.102Z,92.74
2024-01-01T00:05:12.183Z,92.84
2024-01-01T00:06:12.178Z,92.84
2024-01-01T00:07:12.042Z,92.84
2024-01-01T00:08:12.130Z,92.84
2024-01-01T00:09:12.055Z,93.05
2024-01-01T00:10:11.996Z,92.84
2024-01-01T00:11:12.051Z,92.84
2024-01-01T00:12:11.970Z,92.84
2024-01-01T00:13:11.994Z,92.84
2024-01-01T00:14:12.022Z,92.74
2024-01-01T00:15:11.961Z,92.63
2024-01-01T00:16:11.960Z,92.74
2024-01-01T00:17:12.022Z,92.84
2024-01-01T00:18:11.965Z,92.94
2024-01-01T00:19:12.026Z,93.05
2024-01-01T00:20:11.964Z,93.05
2024-01-01T00:21:11.889Z,93.15
2024-01-01T00:22:11.884Z,93.15
2024-01-01T00:23:11.906Z,93.15
2024-01-01T00:24:11.897Z,93.15
2024-01-01T00:25:11.846Z,93.15
2024-01-01T00:26:11.950Z,93.25
2024-01-01T00:27:11.815Z,93.25
2024-01-01T00:28:11.812Z,93.25
2024-01-01T00:29:20.120Z,93.25
2024-01-01T00:30:12.861Z,93.35
2024-01-01T00:31:11.850Z,93.25
2024-01-01T00:32:11.830Z,93.25
2024-01-01T00:33:11.846Z,93.35
2024-01-01T00:34:11.799Z,93.46
2024-01-01T00:35:11.766Z,93.46
2024-01-01T00:36:11.759Z,93.35
2024-01-01T00:37:11.729Z,93.35
2024-01-01T00:38:11.769Z,93.35
2024-01-01T00:39:11.761Z,93.35
2024-01-01T00:40:11.733Z,93.35
2024-01-01T00:41:11.772Z,93.46
2024-01-01T00:42:11.684Z,93.35
2024-01-01T00:43:11.646Z,93.25
2024-01-01T00:44:11.807Z,93.35
2024-01-01T00:45:11.715Z,93.40
2024-01-01T00:46:11.638Z,93.35
2024-01-01T00:47:11.731Z,93.40
2024-01-01T00:48:12.029Z,93.50
2024-01-01T00:49:11.642Z,93.50
2024-01-01T00:50:13.319Z,93.50
2024-01-01T00:51:11.605Z,93.50
2024-01-01T00:52:11.591Z,93.46
2024-01-01T00:53:11.671Z,93.46
2024-01-01T00:54:11.591Z,93.35
2024-01-01T00:55:11.557Z,93.30
2024-01-01T00:56:11.619Z,93.25
2024-01-01T00:57:11.517Z,93.30
2024-01-01T00:58:11.522Z,93.40
2024-01-01T00:59:11.555Z,93.30
2024-01-01T01:00:11.522Z,93.30
2024-01-01T01:01:11.489Z,93.40
2024-01-01T01:02:11.483Z,93.50
2024-01-01T01:03:11.516Z,93.30
2024-01-01T01:04:11.491Z,93.30
2024-01-01T01:05:11.527Z,93.40
2024-01-01T01:06:18.241Z,93.40
2024-01-01T01:07:12.402Z,93.50
2024-01-01T01:08:11.480Z,93.50
2024-01-01T01:09:11.413Z,93.30
2024-01-01T01:10:11.378Z,93.30
2024-01-01T01:11:11.391Z,93.30
2024-01-01T01:12:11.428Z,93.19
2024-01-01T01:13:11.338Z,93.30
2024-01-01T01:14:11.496Z,93.30
2024-01-01T01:15:11.330Z,93.30
2024-01-01T01:16:11.310Z,93.09
2024-01-01T01:17:11.314Z,93.30
2024-01-01T01:18:11.743Z,93.30
2024-01-01T01:19:11.324Z,93.30
2024-01-01T01:20:11.401Z,93.60
2024-01-01T01:21:11.341Z,93.60
2024-01-01T01:22:11.250Z,93.40
2024-01-01T01:23:11.308Z,93.50
2024-01-01T01:24:11.239Z,93.40
2024-01-01T01:25:11.331Z,93.40
2024-01-01T01:26:11.460Z,93.50
2024-01-01T01:27:11.231Z,93.50
2024-01-01T01:28:11.318Z,93.71
2024-01-01T01:29:11.289Z,93.71
2024-01-01T01:30:11.335Z,93.60
2024-01-01T01:31:11.159Z,93.50
2024-01-01T01:32:11.165Z,93.40
2024-01-01T01:33:11.219Z,93.40
2024-01-01T01:34:11.139Z,93.50
2024-01-01T01:35:11.252Z,93.71
2024-01-01T01:36:11.134Z,93.71
2024-01-01T01:37:11.104Z,93.71
2024-01-01T01:38:11.139Z,93.71
2024-01-01T01:39:11.075Z,93.81
2024-01-01T01:40:11.086Z,93.71
2024-01-01T01:41:11.094Z,93.71
2024-01-01T01:42:11.047Z,93.60
2024-01-01T01:43:11.055Z,93.71
2024-01-01T01:44:11.056Z,93.60
2024-01-01T01:45:11.058Z,93.60
2024-01-01T01:46:10.996Z,93.71
2024-01-01T01:47:11.130Z,93.71
2024-01-01T01:48:11.053Z,93.81
2024-01-01T01:49:11.042Z,93.71
2024-01-01T01:50:11.001Z,93.60
2024-01-01T01:51:10.971Z,93.60
2024-01-01T01:52:10.937Z,93.60
2024-01-01T01:53:10.963Z,93.91
2024-01-01T01:54:10.927Z,94.02
2024-01-01T01:55:10.933Z,93.81
2024-01-01T01:56:11.030Z,93.71
2024-01-01T01:57:10.911Z,93.71
2024-01-01T01:58:10.878Z,93.60
2024-01-01T01:59:11.025Z,93.50
2024-01-01T02:00:10.900Z,93.50
2024-01-01T02:01:10.983Z,93.50
2024-01-01T02:02:10.935Z,93.40
2024-01-01T02:03:10.930Z,93.30
2024-01-01T02:04:10.897Z,93.30
2024-01-01T02:05:11.044Z,93.40
2024-01-01T02:06:10.821Z,93.54
2024-01-01T02:07:10.855Z,93.65
2024-01-01T02:08:11.278Z,93.54
2024-01-01T02:09:10.884Z,93.54
2024-01-01T02:10:10.857Z,93.75
2024-01-01T02:11:10.956Z,93.85
2024-01-01T02:12:10.747Z,93.96
2024-01-01T02:13:10.730Z,93.96
2024-01-01T02:14:10.960Z,94.06
2024-01-01T02:15:10.756Z,94.21
2024-01-01T02:16:10.820Z,94.31
2024-01-01T02:17:10.754Z,94.42
2024-01-01T02:18:10.954Z,94.52
2024-01-01T02:19:10.800Z,94.62
2024-01-01T02:20:16.739Z,94.62
2024-01-01T02:21:11.720Z,94.62
2024-01-01T02:22:10.672Z,94.72
2024-01-01T02:23:10.697Z,94.93
2024-01-01T02:24:10.642Z,95.03
2024-01-01T02:25:10.646Z,94.93
2024-01-01T02:26:10.715Z,94.93
2024-01-01T02:27:10.587Z,95.03
2024-01-01T02:28:10.555Z,94.93
2024-01-01T02:29:10.612Z,95.03
2024-01-01T02:30:10.680Z,95.03
2024-01-01T02:31:10.591Z,95.03
2024-01-01T02:32:10.716Z,95.03
2024-01-01T02:33:10.631Z,95.14
2024-01-01T02:34:10.524Z,95.03
2024-01-01T02:35:10.907Z,95.18
2024-01-01T02:36:10.570Z,95.18
2024-01-01T02:37:10.490Z,95.28
2024-01-01T02:38:10.702Z,95.28
2024-01-01T02:39:10.471Z,95.39
2024-01-01T02:40:10.434Z,95.49
2024-01-01T02:41:10.481Z,95.49
2024-01-01T02:42:10.480Z,95.28
2024-01-01T02:43:10.465Z,95.28
2024-01-01T02:44:10.497Z,95.28
2024-01-01T02:45:10.406Z,95.18
2024-01-01T02:46:10.461Z,95.28
2024-01-01T02:47:10.563Z,95.18
2024-01-01T02:48:10.760Z,95.39
2024-01-01T02:49:10.402Z,95.59
2024-01-01T02:50:10.424Z,95.49
2024-01-01T02:51:10.349Z,95.59
2024-01-01T02:52:10.333Z,95.59
2024-01-01T02:53:10.382Z,95.59
2024-01-01T02:54:10.327Z,95.59
2024-01-01T02:55:10.361Z,95.70
2024-01-01T02:56:10.337Z,95.70
2024-01-01T02:57:10.270Z,95.70
2024-01-01T02:58:10.259Z,95.80
2024-01-01T02:59:10.505Z,95.80
2024-01-01T03:00:10.318Z,95.59
2024-01-01T03:01:10.259Z,95.59
2024-01-01T03:02:10.369Z,95.59
2024-01-01T03:03:10.245Z,95.59
2024-01-01T03:04:10.296Z,95.70
2024-01-01T03:05:10.350Z,95.70
2024-01-01T03:06:10.513Z,95.49
2024-01-01T03:07:10.198Z,95.39
2024-01-01T03:08:10.248Z,95.53
2024-01-01T03:09:10.337Z,95.53
2024-01-01T03:10:10.145Z,95.64
2024-01-01T03:11:10.236Z,95.74
2024-01-01T03:12:10.155Z,95.95
2024-01-01T03:13:10.120Z,95.95
2024-01-01T03:14:10.214Z,96.05
2024-01-01T03:15:10.078Z,96.05
2024-01-01T03:16:10.158Z,96.05
2024-01-01T03:17:10.227Z,96.26
2024-01-01T03:18:10.633Z,96.47
2024-01-01T03:19:10.219Z,96.47
2024-01-01T03:20:10.087Z,96.56
2024-01-01T03:21:10.144Z,96.56
2024-01-01T03:22:10.109Z,96.56
2024-01-01T03:23:10.071Z,96.56
2024-01-01T03:24:10.048Z,96.56
2024-01-01T03:25:09.974Z,96.67
2024-01-01T03:26:10.069Z,96.56
2024-01-01T03:27:09.955Z,96.67
2024-01-01T03:28:09.979Z,96.56
2024-01-01T03:29:10.004Z,96.67
2024-01-01T03:30:10.290Z,96.72
2024-01-01T03:31:09.940Z,96.82
2024-01-01T03:32:10.317Z,96.82
2024-01-01T03:33:10.026Z,96.82
2024-01-01T03:34:09.979Z,96.92
2024-01-01T03:35:09.953Z,97.02
2024-01-01T03:36:09.879Z,96.92
2024-01-01T03:37:09.862Z,96.72
2024-01-01T03:38:10.242Z,96.82
2024-01-01T03:39:09.836Z,96.72
2024-01-01T03:40:09.854Z,96.92
2024-01-01T03:41:09.942Z,96.82
2024-01-01T03:42:10.055Z,96.92
2024-01-01T03:43:09.807Z,96.92
2024-01-01T03:44:09.904Z,96.88
2024-01-01T03:45:09.876Z,96.98
2024-01-01T03:46:09.778Z,96.88
2024-01-01T03:47:09.826Z,96.77
2024-01-01T03:48:10.147Z,96.77
2024-01-01T03:49:09.753Z,96.56
2024-01-01T03:50:09.774Z,96.67
2024-01-01T03:51:09.791Z,96.47
2024-01-01T03:52:09.723Z,96.47
2024-01-01T03:53:09.836Z,96.26
2024-01-01T03:54:09.735Z,96.05
2024-01-01T03:55:09.674Z,96.05
2024-01-01T03:56:09.746Z,96.05
2024-01-01T03:57:09.640Z,95.95
2024-01-01T03:58:09.641Z,95.95
2024-01-01T03:59:09.675Z,95.84
2024-01-01T04:00:09.615Z,95.84
2024-01-01T04:01:09.662Z,95.84
2024-01-01T04:02:09.962Z,95.84
2024-01-01T04:03:09.596Z,95.64
2024-01-01T04:04:09.577Z,95.74
2024-01-01T04:05:09.766Z,95.84
2024-01-01T04:06:09.638Z,95.64
2024-01-01T04:07:09.569Z,95.53
2024-01-01T04:08:09.906Z,95.53
2024-01-01T04:09:09.552Z,95.53
2024-01-01T04:10:09.560Z,95.53
2024-01-01T04:11:09.557Z,95.53
2024-01-01T04:12:09.574Z,95.53
2024-01-01T04:13:09.505Z,95.43
2024-01-01T04:14:09.655Z,95.43
2024-01-01T04:15:09.675Z,95.53
2024-01-01T04:16:09.793Z,95.53
2024-01-01T04:17:09.518Z,95.53
2024-01-01T04:18:09.859Z,95.64
2024-01-01T04:19:09.498Z,95.74
2024-01-01T04:20:09.500Z,95.64
2024-01-01T04:21:09.465Z,95.64
2024-01-01T04:22:10.241Z,95.64
2024-01-01T04:23:09.578Z,95.53
2024-01-01T04:24:09.412Z,95.53
2024-01-01T04:25:10.033Z,95.53
2024-01-01T04:26:09.434Z,95.43
2024-01-01T04:27:09.529Z,95.53
2024-01-01T04:28:09.444Z,95.64
2024-01-01T04:29:09.401Z,95.64
2024-01-01T04:30:10.084Z,95.53
2024-01-01T04:31:09.373Z,95.53
2024-01-01T04:32:09.348Z,95.43
2024-01-01T04:33:09.684Z,95.43
2024-01-01T04:34:09.296Z,95.43
2024-01-01T04:35:09.837Z,95.43
2024-01-01T04:36:09.287Z,95.53
2024-01-01T04:37:09.258Z,95.43
2024-01-01T04:38:09.706Z,95.32
2024-01-01T04:39:09.442Z,95.12
2024-01-01T04:40:09.189Z,95.02
2024-01-01T04:41:09.229Z,95.22
2024-01-01T04:42:09.236Z,95.22
2024-01-01T04:43:09.172Z,95.12
2024-01-01T04:44:09.523Z,95.12
2024-01-01T04:45:09.748Z,95.12
2024-01-01T04:46:09.142Z,94.92
2024-01-01T04:47:09.283Z,94.92
2024-01-01T04:48:09.409Z,94.77
2024-01-01T04:49:09.189Z,94.46
2024-01-01T04:50:09.147Z,94.35
2024-01-01T04:51:09.116Z,94.04
2024-01-01T04:52:09.089Z,94.04
2024-01-01T04:53:09.138Z,93.94
2024-01-01T04:54:09.111Z,93.73
2024-01-01T04:55:09.051Z,93.63
2024-01-01T04:56:09.115Z,93.73
2024-01-01T04:57:09.055Z,93.69
2024-01-01T04:58:09.053Z,93.69
2024-01-01T04:59:09.057Z,93.59
2024-01-01T05:00:09.016Z,93.38
2024-01-01T05:01:09.066Z,93.28
2024-01-01T05:02:09.006Z,93.07
2024-01-01T05:03:08.975Z,92.86
2024-01-01T05:04:09.006Z,92.86
2024-01-01T05:05:08.987Z,92.76
2024-01-01T05:06:09.003Z,92.46
2024-01-01T05:07:09.003Z,92.35
2024-01-01T05:08:09.276Z,92.35
2024-01-01T05:09:08.939Z,92.46
2024-01-01T05:10:08.936Z,92.35
2024-01-01T05:11:08.967Z,92.35
2024-01-01T05:12:08.865Z,92.41
2024-01-01T05:13:08.894Z,92.14
2024-01-01T05:14:08.893Z,92.00
2024-01-01T05:15:08.870Z,91.89
2024-01-01T05:16:08.835Z,91.79
2024-01-01T05:17:08.826Z,91.79
2024-01-01T05:18:09.111Z,91.79
2024-01-01T05:19:08.875Z,91.79
2024-01-01T05:20:08.906Z,91.69
2024-01-01T05:21:08.882Z,91.58
2024-01-01T05:22:08.774Z,91.38
2024-01-01T05:23:08.838Z,91.38
2024-01-01T05:24:08.748Z,91.48
2024-01-01T05:25:08.758Z,91.48
2024-01-01T05:26:08.785Z,91.38
2024-01-01T05:27:08.797Z,91.38
2024-01-01T05:28:08.719Z,91.17
2024-01-01T05:29:08.822Z,91.28
2024-01-01T05:30:08.742Z,90.97
2024-01-01T05:31:08.703Z,91.17
2024-01-01T05:32:08.756Z,91.07
2024-01-01T05:33:08.739Z,91.07
2024-01-01T05:34:08.648Z,91.17
2024-01-01T05:35:08.708Z,91.07
2024-01-01T05:36:08.794Z,90.97
2024-01-01T05:37:08.675Z,90.97
2024-01-01T05:38:09.045Z,90.86
2024-01-01T05:39:08.633Z,90.66
2024-01-01T05:40:08.594Z,90.61
2024-01-01T05:41:08.668Z,90.51
2024-01-01T05:42:08.565Z,90.51
2024-01-01T05:43:08.648Z,90.51
2024-01-01T05:44:08.904Z,90.55
2024-01-01T05:45:09.584Z,90.72
2024-01-01T05:46:08.522Z,90.72
2024-01-01T05:47:08.548Z,90.86
2024-01-01T05:48:18.358Z,90.86
2024-01-01T05:49:09.600Z,90.72
2024-01-01T05:50:08.840Z,90.72
2024-01-01T05:51:08.507Z,90.61
2024-01-01T05:52:08.466Z,90.61
2024-01-01T05:53:09.030Z,90.51
2024-01-01T05:54:08.466Z,90.51
2024-01-01T05:55:08.438Z,90.61
2024-01-01T05:56:08.579Z,90.51
2024-01-01T05:57:08.421Z,90.41
2024-01-01T05:58:08.444Z,90.51
2024-01-01T05:59:08.851Z,90.51
2024-01-01T06:00:08.453Z,90.51
2024-01-01T06:01:08.472Z,90.51
2024-01-01T06:02:08.443Z,90.51
2024-01-01T06:03:08.506Z,90.41
2024-01-01T06:04:08.356Z,90.41
2024-01-01T06:05:08.504Z,90.41
2024-01-01T06:06:08.360Z,90.61
2024-01-01T06:07:08.331Z,91.03
2024-01-01T06:08:08.599Z,92.68
2024-01-01T06:09:08.288Z,91.44
2024-01-01T06:10:08.293Z,91.24
2024-01-01T06:11:08.371Z,91.13
2024-01-01T06:12:08.933Z,90.82
2024-01-01T06:13:08.240Z,90.92
2024-01-01T06:14:08.374Z,91.13
2024-01-01T06:15:08.244Z,91.44
2024-01-01T06:16:08.311Z,91.64
2024-01-01T06:17:08.465Z,91.96
2024-01-01T06:18:08.663Z,92.06
2024-01-01T06:19:08.610Z,92.16
2024-01-01T06:20:08.331Z,92.27
2024-01-01T06:21:08.202Z,92.57
2024-01-01T06:22:08.288Z,92.88
2024-01-01T06:23:08.245Z,92.88
2024-01-01T06:24:08.183Z,92.68
2024-01-01T06:25:08.162Z,93.09
2024-01-01T06:26:08.140Z,93.19
2024-01-01T06:27:08.111Z,93.30
2024-01-01T06:28:08.408Z,93.40
2024-01-01T06:29:08.315Z,93.30
2024-01-01T06:30:08.138Z,93.50
2024-01-01T06:31:08.061Z,93.50
2024-01-01T06:32:08.064Z,93.50
2024-01-01T06:33:08.296Z,93.71
2024-01-01T06:34:08.106Z,93.60
2024-01-01T06:35:08.112Z,93.81
2024-01-01T06:36:08.093Z,93.65
2024-01-01T06:37:08.093Z,93.85
2024-01-01T06:38:08.972Z,94.06
2024-01-01T06:39:08.028Z,94.06
2024-01-01T06:40:07.966Z,94.06
2024-01-01T06:41:07.974Z,94.06
2024-01-01T06:42:08.095Z,94.17
2024-01-01T06:43:09.044Z,94.17
2024-01-01T06:44:07.902Z,94.06
2024-01-01T06:45:07.884Z,94.06
2024-01-01T06:46:07.876Z,93.85
2024-01-01T06:47:07.887Z,93.96
2024-01-01T06:48:08.211Z,94.17
2024-01-01T06:49:08.022Z,94.06
2024-01-01T06:50:08.000Z,93.96
2024-01-01T06:51:07.822Z,93.85
2024-01-01T06:52:07.804Z,93.96
2024-01-01T06:53:07.880Z,93.96
2024-01-01T06:54:07.784Z,93.85
2024-01-01T06:55:07.773Z,93.85
2024-01-01T06:56:10.260Z,93.81
2024-01-01T06:57:07.736Z,93.75
2024-01-01T06:58:08.123Z,93.65
2024-01-01T06:59:08.091Z,93.60
2024-01-01T07:00:07.738Z,93.40
2024-01-01T07:01:07.868Z,93.19
2024-01-01T07:02:07.742Z,93.19
2024-01-01T07:03:07.913Z,93.30
2024-01-01T07:04:07.807Z,93.30
2024-01-01T07:05:07.737Z,93.30
2024-01-01T07:06:07.817Z,93.19
2024-01-01T07:07:07.682Z,93.30
2024-01-01T07:08:07.911Z,93.30
2024-01-01T07:09:07.756Z,93.50
2024-01-01T07:10:07.630Z,93.24
2024-01-01T07:11:08.018Z,93.44
2024-01-01T07:12:07.656Z,93.54
2024-01-01T07:13:07.700Z,93.54
2024-01-01T07:14:07.582Z,93.54
2024-01-01T07:15:07.612Z,93.54
2024-01-01T07:16:07.542Z,93.65
2024-01-01T07:17:07.649Z,93.65
2024-01-01T07:18:08.728Z,93.65
2024-01-01T07:19:07.670Z,93.65
2024-01-01T07:20:07.680Z,93.54
2024-01-01T07:21:07.515Z,93.65
2024-01-01T07:22:07.488Z,93.65
2024-01-01T07:23:07.724Z,93.54
2024-01-01T07:24:07.500Z,93.65
2024-01-01T07:25:07.448Z,93.54
2024-01-01T07:26:07.773Z,93.65
2024-01-01T07:27:07.462Z,93.65
2024-01-01T07:28:07.610Z,93.54
2024-01-01T07:29:07.448Z,93.54
2024-01-01T07:30:07.499Z,93.44
2024-01-01T07:31:07.547Z,93.44
2024-01-01T07:32:07.416Z,93.44
2024-01-01T07:33:07.497Z,93.34
2024-01-01T07:34:08.177Z,93.34
2024-01-01T07:35:07.415Z,93.34
2024-01-01T07:36:07.359Z,93.24
2024-01-01T07:37:07.326Z,93.34
2024-01-01T07:38:07.638Z,93.34
2024-01-01T07:39:07.460Z,93.34
2024-01-01T07:40:07.309Z,93.34
2024-01-01T07:41:07.338Z,93.44
2024-01-01T07:42:07.365Z,93.44
2024-01-01T07:43:07.272Z,93.34
2024-01-01T07:44:07.784Z,93.44
2024-01-01T07:45:07.273Z,93.44
2024-01-01T07:46:07.265Z,93.34
2024-01-01T07:47:07.316Z,93.34
2024-01-01T07:48:07.671Z,93.34
2024-01-01T07:49:07.322Z,93.34
2024-01-01T07:50:07.204Z,93.34
2024-01-01T07:51:07.227Z,93.24
2024-01-01T07:52:07.199Z,93.24
2024-01-01T07:53:07.227Z,93.13
2024-01-01T07:54:07.296Z,92.93
2024-01-01T07:55:07.165Z,92.93
2024-01-01T07:56:07.240Z,92.72
2024-01-01T07:57:07.182Z,92.61
2024-01-01T07:58:07.305Z,92.72
2024-01-01T07:59:07.180Z,92.68
2024-01-01T08:00:07.199Z,92.57
2024-01-01T08:01:07.156Z,92.47
2024-01-01T08:02:07.280Z,92.37
2024-01-01T08:03:07.196Z,92.27
2024-01-01T08:04:07.067Z,92.37
2024-01-01T08:05:07.212Z,92.27
2024-01-01T08:06:07.103Z,92.16
2024-01-01T08:07:07.015Z,92.06
2024-01-01T08:08:08.176Z,92.06
2024-01-01T08:09:06.998Z,92.06
2024-01-01T08:10:07.089Z,91.64
2024-01-01T08:11:07.006Z,91.64
2024-01-01T08:12:07.007Z,91.71
2024-01-01T08:13:06.987Z,91.71
2024-01-01T08:14:08.113Z,91.60
2024-01-01T08:15:07.065Z,91.40
2024-01-01T08:16:06.939Z,91.40
2024-01-01T08:17:06.953Z,91.09
2024-01-01T08:18:07.233Z,91.09
2024-01-01T08:19:06.929Z,90.88
2024-01-01T08:20:06.997Z,90.67
2024-01-01T08:21:06.985Z,90.78
2024-01-01T08:22:06.912Z,90.67
2024-01-01T08:23:07.031Z,90.57
2024-01-01T08:24:06.823Z,90.53
2024-01-01T08:25:06.874Z,90.43
2024-01-01T08:26:06.830Z,90.43
2024-01-01T08:27:06.806Z,90.22
2024-01-01T08:28:07.085Z,90.01
2024-01-01T08:29:06.856Z,89.81
2024-01-01T08:30:06.817Z,89.71
2024-01-01T08:31:06.842Z,89.71
2024-01-01T08:32:06.958Z,89.61
2024-01-01T08:33:06.807Z,89.40
2024-01-01T08:34:06.783Z,89.56
2024-01-01T08:35:06.825Z,89.61
2024-01-01T08:36:06.737Z,89.46
2024-01-01T08:37:06.741Z,89.25
2024-01-01T08:38:06.970Z,89.15
2024-01-01T08:39:06.683Z,89.05
2024-01-01T08:40:06.745Z,89.05
2024-01-01T08:41:06.718Z,88.95
2024-01-01T08:42:06.645Z,89.05
2024-01-01T08:43:06.687Z,89.15
2024-01-01T08:44:09.503Z,89.25
2024-01-01T08:45:06.733Z,89.77
2024-01-01T08:46:06.645Z,89.52
2024-01-01T08:47:06.672Z,89.01
2024-01-01T08:48:06.937Z,89.11
2024-01-01T08:49:06.643Z,89.62
2024-01-01T08:50:06.576Z,89.83
2024-01-01T08:51:06.550Z,89.31
2024-01-01T08:52:06.608Z,88.59
2024-01-01T08:53:06.593Z,88.29
2024-01-01T08:54:06.551Z,88.39
2024-01-01T08:55:06.508Z,88.29
2024-01-01T08:56:06.569Z,88.24
2024-01-01T08:57:06.549Z,88.04
2024-01-01T08:58:06.861Z,88.04
2024-01-01T08:59:06.528Z,87.94
2024-01-01T09:00:06.510Z,87.63
2024-01-01T09:01:06.531Z,87.73
2024-01-01T09:02:06.542Z,87.59
2024-01-01T09:03:06.465Z,87.49
2024-01-01T09:04:06.543Z,87.38
2024-01-01T09:05:06.474Z,87.69
2024-01-01T09:06:06.516Z,87.90
2024-01-01T09:07:06.477Z,87.49
2024-01-01T09:08:06.626Z,86.97
2024-01-01T09:09:06.400Z,86.97
2024-01-01T09:10:06.404Z,86.87
2024-01-01T09:11:06.384Z,86.66
2024-01-01T09:12:06.367Z,86.56
2024-01-01T09:13:06.403Z,86.66
2024-01-01T09:14:06.399Z,86.62
2024-01-01T09:15:06.401Z,86.62
2024-01-01T09:16:06.370Z,86.52
2024-01-01T09:17:06.503Z,86.52
2024-01-01T09:18:06.756Z,86.35
2024-01-01T09:19:06.458Z,86.35
2024-01-01T09:20:06.338Z,86.66
2024-01-01T09:21:06.445Z,86.56
2024-01-01T09:22:06.273Z,86.35
2024-01-01T09:23:06.252Z,86.56
2024-01-01T09:24:06.241Z,86.77
2024-01-01T09:25:06.309Z,86.46
2024-01-01T09:26:06.260Z,86.32
2024-01-01T09:27:06.178Z,86.32
2024-01-01T09:28:06.407Z,86.21
2024-01-01T09:29:06.184Z,86.11
2024-01-01T09:30:06.191Z,86.11
2024-01-01T09:31:06.153Z,85.90
2024-01-01T09:32:06.134Z,85.80
2024-01-01T09:33:06.195Z,85.80
2024-01-01T09:34:06.146Z,85.90
2024-01-01T09:35:06.120Z,85.49
2024-01-01T09:36:06.133Z,85.60
2024-01-01T09:37:06.068Z,85.60
2024-01-01T09:38:06.530Z,85.60
2024-01-01T09:39:06.094Z,85.49
2024-01-01T09:40:06.126Z,85.49
2024-01-01T09:41:06.133Z,85.49
2024-01-01T09:42:06.038Z,85.39
2024-01-01T09:43:06.003Z,85.28
2024-01-01T09:44:06.040Z,85.39
2024-01-01T09:45:06.536Z,85.60
2024-01-01T09:46:05.973Z,85.80
2024-01-01T09:47:06.014Z,85.74
2024-01-01T09:48:06.349Z,85.49
2024-01-01T09:49:06.000Z,85.33
2024-01-01T09:50:05.995Z,85.33
2024-01-01T09:51:05.954Z,85.33
2024-01-01T09:52:05.921Z,85.18
2024-01-01T09:53:05.976Z,85.43
2024-01-01T09:54:05.921Z,85.18
2024-01-01T09:55:05.939Z,85.02
2024-01-01T09:56:06.592Z,85.22
2024-01-01T09:57:06.354Z,85.22
2024-01-01T09:58:06.147Z,85.33
2024-01-01T09:59:05.889Z,85.33
2024-01-01T10:00:05.905Z,85.33
2024-01-01T10:01:05.891Z,85.22
2024-01-01T10:02:05.892Z,85.43
2024-01-01T10:03:05.817Z,85.74
2024-01-01T10:04:05.881Z,85.84
2024-01-01T10:05:05.954Z,85.74
2024-01-01T10:06:05.797Z,85.84
2024-01-01T10:07:05.887Z,86.15
2024-01-01T10:08:05.984Z,86.15
2024-01-01T10:09:05.767Z,86.25
2024-01-01T10:10:05.882Z,86.15
2024-01-01T10:11:05.737Z,86.25
2024-01-01T10:12:05.734Z,86.25
2024-01-01T10:13:06.048Z,86.35
2024-01-01T10:14:05.839Z,86.46
2024-01-01T10:15:06.714Z,86.77
2024-01-01T10:16:05.692Z,86.77
2024-01-01T10:17:05.703Z,87.07
2024-01-01T10:18:05.897Z,87.18
2024-01-01T10:19:05.896Z,87.38
2024-01-01T10:20:05.651Z,87.59
2024-01-01T10:21:05.624Z,87.90
2024-01-01T10:22:05.625Z,88.00
2024-01-01T10:23:06.966Z,88.00
2024-01-01T10:24:11.031Z,87.90
2024-01-01T10:25:06.651Z,87.49
2024-01-01T10:26:05.609Z,87.59
2024-01-01T10:27:05.637Z,87.49
2024-01-01T10:28:05.753Z,87.34
2024-01-01T10:29:05.600Z,87.45
2024-01-01T10:30:05.687Z,87.34
2024-01-01T10:31:05.674Z,87.04
2024-01-01T10:32:05.543Z,86.72
2024-01-01T10:33:05.877Z,86.83
2024-01-01T10:34:05.924Z,86.83
2024-01-01T10:35:05.641Z,86.83
2024-01-01T10:36:05.630Z,86.62
2024-01-01T10:37:05.488Z,86.52
2024-01-01T10:38:05.841Z,86.72
2024-01-01T10:39:05.494Z,86.62
2024-01-01T10:40:05.489Z,86.72
2024-01-01T10:41:05.478Z,86.72
2024-01-01T10:42:05.463Z,86.93
2024-01-01T10:43:05.601Z,86.93
2024-01-01T10:44:05.450Z,86.62
2024-01-01T10:45:05.412Z,86.35
2024-01-01T10:46:05.482Z,86.56
2024-01-01T10:47:05.397Z,86.77
2024-01-01T10:48:05.616Z,86.87
2024-01-01T10:49:05.377Z,86.87
2024-01-01T10:50:05.465Z,86.87
2024-01-01T10:51:05.338Z,86.87
2024-01-01T10:52:05.300Z,87.07
2024-01-01T10:53:05.729Z,87.18
2024-01-01T10:54:05.280Z,87.07
2024-01-01T10:55:05.358Z,87.07
2024-01-01T10:56:05.269Z,86.97
2024-01-01T10:57:05.241Z,86.77
2024-01-01T10:58:05.245Z,86.97
2024-01-01T10:59:05.275Z,86.87
2024-01-01T11:00:05.247Z,86.77
2024-01-01T11:01:05.293Z,86.87
2024-01-01T11:02:05.246Z,86.66
2024-01-01T11:03:05.501Z,86.66
2024-01-01T11:04:05.229Z,86.66
2024-01-01T11:05:05.294Z,86.97
2024-01-01T11:06:05.249Z,86.77
2024-01-01T11:07:05.135Z,86.97
2024-01-01T11:08:05.273Z,86.77
2024-01-01T11:09:05.150Z,86.66
2024-01-01T11:10:12.733Z,86.87
2024-01-01T11:11:06.165Z,86.77
2024-01-01T11:12:05.098Z,86.77
2024-01-01T11:13:05.322Z,86.87
2024-01-01T11:14:05.182Z,86.87
2024-01-01T11:15:05.110Z,86.87
2024-01-01T11:16:05.400Z,87.07
2024-01-01T11:17:05.083Z,86.97
2024-01-01T11:18:05.494Z,86.87
2024-01-01T11:19:05.112Z,86.87
2024-01-01T11:20:05.108Z,86.87
2024-01-01T11:21:05.008Z,86.77
2024-01-01T11:22:04.988Z,86.77
2024-01-01T11:23:05.232Z,86.46
2024-01-01T11:24:19.793Z,86.56
2024-01-01T11:25:06.037Z,86.66
2024-01-01T11:26:05.027Z,86.66
2024-01-01T11:27:04.988Z,86.52
2024-01-01T11:28:05.125Z,86.46
2024-01-01T11:29:05.072Z,86.21
2024-01-01T11:30:05.770Z,86.00
2024-01-01T11:31:06.600Z,86.11
2024-01-01T11:32:05.061Z,86.11
2024-01-01T11:33:05.207Z,86.11
2024-01-01T11:34:13.038Z,86.00
2024-01-01T11:35:06.265Z,86.00
2024-01-01T11:36:04.884Z,85.80
2024-01-01T11:37:04.954Z,85.39
2024-01-01T11:38:04.863Z,85.49
2024-01-01T11:39:04.909Z,85.49
2024-01-01T11:40:04.950Z,85.35
2024-01-01T11:41:04.837Z,85.49
2024-01-01T11:42:04.773Z,85.35
2024-01-01T11:43:04.770Z,85.55
2024-01-01T11:44:04.785Z,85.55
2024-01-01T11:45:04.808Z,86.27
2024-01-01T11:46:04.760Z,86.27
2024-01-01T11:47:04.919Z,86.07
2024-01-01T11:48:04.777Z,85.76
2024-01-01T11:49:04.845Z,85.97
2024-01-01T11:50:04.727Z,85.55
2024-01-01T11:51:04.749Z,85.46
2024-01-01T11:52:04.663Z,85.66
2024-01-01T11:53:04.939Z,85.76
2024-01-01T11:54:04.647Z,85.97
2024-01-01T11:55:04.669Z,85.76
2024-01-01T11:56:04.622Z,85.86
2024-01-01T11:57:04.625Z,85.86
2024-01-01T11:58:04.651Z,85.72
2024-01-01T11:59:04.629Z,85.62
2024-01-01T12:00:04.723Z,85.31
2024-01-01T12:01:04.607Z,85.31
2024-01-01T12:02:04.625Z,85.46
2024-01-01T12:03:04.856Z,85.31
2024-01-01T12:04:04.546Z,85.41
2024-01-01T12:05:04.642Z,85.55
2024-01-01T12:06:04.717Z,85.66
2024-01-01T12:07:04.543Z,85.76
2024-01-01T12:08:04.517Z,85.86
2024-01-01T12:09:06.390Z,85.97
2024-01-01T12:10:04.508Z,85.76
2024-01-01T12:11:04.686Z,85.76
2024-01-01T12:12:04.505Z,85.66
2024-01-01T12:13:04.782Z,85.52
2024-01-01T12:14:04.504Z,85.52
2024-01-01T12:15:04.456Z,85.52
2024-01-01T12:16:04.426Z,85.41
2024-01-01T12:17:04.779Z,85.31
2024-01-01T12:18:04.579Z,85.11
2024-01-01T12:19:04.408Z,85.21
2024-01-01T12:20:04.518Z,85.31
2024-01-01T12:21:06.238Z,85.00
2024-01-01T12:22:04.435Z,84.80
2024-01-01T12:23:04.731Z,85.11
2024-01-01T12:24:04.377Z,85.21
2024-01-01T12:25:04.348Z,85.11
2024-01-01T12:26:04.338Z,85.11
2024-01-01T12:27:04.651Z,85.11
2024-01-01T12:28:04.309Z,85.11
2024-01-01T12:29:04.384Z,85.00
2024-01-01T12:30:04.454Z,84.90
2024-01-01T12:31:04.327Z,84.90
2024-01-01T12:32:04.304Z,85.00
2024-01-01T12:33:04.921Z,85.11
2024-01-01T12:34:04.307Z,85.00
2024-01-01T12:35:04.265Z,85.00
2024-01-01T12:36:04.232Z,84.69
2024-01-01T12:37:04.231Z,84.66
2024-01-01T12:38:04.299Z,84.55
2024-01-01T12:39:04.178Z,84.55
2024-01-01T12:40:04.153Z,84.55
2024-01-01T12:41:04.946Z,84.55
2024-01-01T12:42:04.170Z,84.25
2024-01-01T12:43:04.561Z,84.25
2024-01-01T12:44:04.202Z,84.14
2024-01-01T12:45:04.116Z,83.94
2024-01-01T12:46:04.150Z,83.94
2024-01-01T12:47:04.123Z,84.41
2024-01-01T12:48:04.123Z,85.23
2024-01-01T12:49:04.202Z,86.15
2024-01-01T12:50:04.128Z,84.31
2024-01-01T12:51:06.144Z,84.31
2024-01-01T12:52:04.064Z,84.61